sensor_id;sensor_type;location;lat;lon;timestamp;pressure;altitude;pressure_sealevel;temperature;humidity
10476;BME280;26166;48.264;11.436;2023-01-27T00:01:46;96219.00;;;8.86;46.41
10476;BME280;26166;48.264;11.436;2023-01-27T00:04:47;96212.91;;;8.85;46.52
10476;BME280;26166;48.264;11.436;2023-01-27T00:07:47;96219.31;;;8.82;46.43
10476;BME280;26166;48.264;11.436;2023-01-27T00:10:47;96212.44;;;8.81;46.53
10476;BME280;26166;48.264;11.436;2023-01-27T00:14:07;96211.91;;;8.78;46.56
10476;BME280;26166;48.264;11.436;2023-01-27T00:17:07;96217.66;;;8.81;46.71
10476;BME280;26166;48.264;11.436;2023-01-27T00:20:08;96211.91;;;8.78;46.95
10476;BME280;26166;48.264;11.436;2023-01-27T00:23:13;96211.75;;;8.79;46.63
10476;BME280;26166;48.264;11.436;2023-01-27T00:26:32;96217.97;;;8.78;46.53
10476;BME280;26166;48.264;11.436;2023-01-27T00:29:32;96212.75;;;8.78;46.41
10476;BME280;26166;48.264;11.436;2023-01-27T00:32:32;96204.88;;;8.78;46.44
10476;BME280;26166;48.264;11.436;2023-01-27T00:35:58;96203.25;;;8.77;46.47
10476;BME280;26166;48.264;11.436;2023-01-27T00:38:59;96210.75;;;8.72;46.33
10476;BME280;26166;48.264;11.436;2023-01-27T00:41:59;96216.94;;;8.71;46.63
10476;BME280;26166;48.264;11.436;2023-01-27T00:44:59;96207.28;;;8.72;46.37
10476;BME280;26166;48.264;11.436;2023-01-27T00:48:18;96199.75;;;8.69;46.39
10476;BME280;26166;48.264;11.436;2023-01-27T00:51:18;96204.53;;;8.73;46.42
10476;BME280;26166;48.264;11.436;2023-01-27T00:54:19;96213.03;;;8.75;46.36
10476;BME280;26166;48.264;11.436;2023-01-27T00:57:19;96210.13;;;8.78;46.25
10476;BME280;26166;48.264;11.436;2023-01-27T01:00:19;96212.78;;;8.87;46.19
10476;BME280;26166;48.264;11.436;2023-01-27T01:03:20;96213.91;;;8.84;46.13
10476;BME280;26166;48.264;11.436;2023-01-27T01:06:20;96220.44;;;8.80;45.93
10476;BME280;26166;48.264;11.436;2023-01-27T01:09:20;96217.00;;;8.79;46.28
10476;BME280;26166;48.264;11.436;2023-01-27T01:12:20;96222.22;;;8.79;46.23
10476;BME280;26166;48.264;11.436;2023-01-27T01:15:21;96226.66;;;8.79;46.02
10476;BME280;26166;48.264;11.436;2023-01-27T01:18:21;96227.47;;;8.79;46.11
10476;BME280;26166;48.264;11.436;2023-01-27T01:21:21;96236.13;;;8.80;46.01
10476;BME280;26166;48.264;11.436;2023-01-27T01:24:22;96239.22;;;8.75;45.80
10476;BME280;26166;48.264;11.436;2023-01-27T01:27:22;96231.69;;;8.72;46.05
10476;BME280;26166;48.264;11.436;2023-01-27T01:30:22;96244.78;;;8.72;45.95
10476;BME280;26166;48.264;11.436;2023-01-27T01:33:25;96237.59;;;8.74;46.18
10476;BME280;26166;48.264;11.436;2023-01-27T01:36:25;96234.81;;;8.76;45.98
10476;BME280;26166;48.264;11.436;2023-01-27T01:39:25;96227.78;;;8.76;45.89
10476;BME280;26166;48.264;11.436;2023-01-27T01:42:25;96228.41;;;8.70;46.05
10476;BME280;26166;48.264;11.436;2023-01-27T01:45:46;96216.63;;;8.74;45.99
10476;BME280;26166;48.264;11.436;2023-01-27T01:49:07;96216.47;;;8.76;45.89
10476;BME280;26166;48.264;11.436;2023-01-27T01:52:13;96217.28;;;8.76;46.32
10476;BME280;26166;48.264;11.436;2023-01-27T01:55:15;96212.75;;;8.78;45.53
10476;BME280;26166;48.264;11.436;2023-01-27T01:58:15;96203.53;;;8.74;45.85
10476;BME280;26166;48.264;11.436;2023-01-27T02:01:15;96204.19;;;8.76;45.87
10476;BME280;26166;48.264;11.436;2023-01-27T02:04:17;96212.22;;;8.75;45.70
10476;BME280;26166;48.264;11.436;2023-01-27T02:07:20;96225.47;;;8.73;45.92
10476;BME280;26166;48.264;11.436;2023-01-27T02:10:21;96238.22;;;8.68;45.71
10476;BME280;26166;48.264;11.436;2023-01-27T02:13:21;96237.84;;;8.63;45.73
10476;BME280;26166;48.264;11.436;2023-01-27T02:16:21;96228.53;;;8.61;46.02
10476;BME280;26166;48.264;11.436;2023-01-27T02:19:45;96204.13;;;8.60;46.01
10476;BME280;26166;48.264;11.436;2023-01-27T02:25:49;96210.81;;;8.54;45.95
10476;BME280;26166;48.264;11.436;2023-01-27T02:28:55;96218.81;;;8.53;45.81
10476;BME280;26166;48.264;11.436;2023-01-27T02:31:56;96230.44;;;8.50;45.84
10476;BME280;26166;48.264;11.436;2023-01-27T02:34:56;96224.00;;;8.45;45.83
10476;BME280;26166;48.264;11.436;2023-01-27T02:37:56;96220.38;;;8.38;46.15
10476;BME280;26166;48.264;11.436;2023-01-27T02:40:58;96214.50;;;8.44;45.95
10476;BME280;26166;48.264;11.436;2023-01-27T02:44:00;96206.66;;;8.44;45.95
10476;BME280;26166;48.264;11.436;2023-01-27T02:47:00;96218.28;;;8.41;45.73
10476;BME280;26166;48.264;11.436;2023-01-27T02:50:01;96210.09;;;8.44;45.83
10476;BME280;26166;48.264;11.436;2023-01-27T02:53:01;96200.75;;;8.42;45.79
10476;BME280;26166;48.264;11.436;2023-01-27T02:56:01;96205.06;;;8.51;45.79
10476;BME280;26166;48.264;11.436;2023-01-27T02:59:01;96205.88;;;8.51;45.51
10476;BME280;26166;48.264;11.436;2023-01-27T03:02:02;96194.66;;;8.59;45.66
10476;BME280;26166;48.264;11.436;2023-01-27T03:05:03;96204.13;;;8.60;45.42
10476;BME280;26166;48.264;11.436;2023-01-27T03:08:03;96192.03;;;8.59;45.37
10476;BME280;26166;48.264;11.436;2023-01-27T03:11:03;96211.00;;;8.61;45.34
10476;BME280;26166;48.264;11.436;2023-01-27T03:14:04;96210.81;;;8.54;45.02
10476;BME280;26166;48.264;11.436;2023-01-27T03:17:04;96199.88;;;8.59;45.47
10476;BME280;26166;48.264;11.436;2023-01-27T03:20:23;96202.63;;;8.57;45.43
10476;BME280;26166;48.264;11.436;2023-01-27T03:23:23;96205.41;;;8.56;45.40
10476;BME280;26166;48.264;11.436;2023-01-27T03:26:23;96202.50;;;8.59;45.38
10476;BME280;26166;48.264;11.436;2023-01-27T03:29:24;96199.50;;;8.54;45.48
10476;BME280;26166;48.264;11.436;2023-01-27T03:32:43;96194.25;;;8.54;45.60
10476;BME280;26166;48.264;11.436;2023-01-27T03:35:53;96180.06;;;8.56;45.36
10476;BME280;26166;48.264;11.436;2023-01-27T03:39:12;96186.63;;;8.61;45.31
10476;BME280;26166;48.264;11.436;2023-01-27T03:42:31;96186.63;;;8.61;45.33
10476;BME280;26166;48.264;11.436;2023-01-27T03:45:50;96184.00;;;8.61;45.22
10476;BME280;26166;48.264;11.436;2023-01-27T03:49:09;96194.47;;;8.61;45.39
10476;BME280;26166;48.264;11.436;2023-01-27T03:52:10;96200.53;;;8.61;45.42
10476;BME280;26166;48.264;11.436;2023-01-27T03:55:10;96197.91;;;8.61;45.32
10476;BME280;26166;48.264;11.436;2023-01-27T04:01:21;96196.63;;;8.65;45.54
10476;BME280;26166;48.264;11.436;2023-01-27T04:04:21;96192.22;;;8.66;45.37
10476;BME280;26166;48.264;11.436;2023-01-27T04:07:40;96206.41;;;8.63;45.43
10476;BME280;26166;48.264;11.436;2023-01-27T04:10:40;96195.94;;;8.63;45.50
10476;BME280;26166;48.264;11.436;2023-01-27T04:14:01;96189.91;;;8.63;45.32
10476;BME280;26166;48.264;11.436;2023-01-27T04:17:03;96197.91;;;8.61;45.37
10476;BME280;26166;48.264;11.436;2023-01-27T04:20:03;96200.38;;;8.63;45.08
10476;BME280;26166;48.264;11.436;2023-01-27T04:23:04;96195.28;;;8.61;45.38
10476;BME280;26166;48.264;11.436;2023-01-27T04:26:04;96196.94;;;8.62;45.19
10476;BME280;26166;48.264;11.436;2023-01-27T04:29:04;96185.47;;;8.63;45.32
10476;BME280;26166;48.264;11.436;2023-01-27T04:32:09;96191.25;;;8.41;45.75
10476;BME280;26166;48.264;11.436;2023-01-27T04:35:15;96186.13;;;8.13;46.54
10476;BME280;26166;48.264;11.436;2023-01-27T04:38:15;96190.50;;;8.30;45.96
10476;BME280;26166;48.264;11.436;2023-01-27T04:41:16;96194.84;;;8.40;45.67
10476;BME280;26166;48.264;11.436;2023-01-27T04:44:16;96199.63;;;8.44;45.77
10476;BME280;26166;48.264;11.436;2023-01-27T04:47:19;96201.41;;;8.44;45.69
10476;BME280;26166;48.264;11.436;2023-01-27T04:50:19;96201.78;;;8.49;45.46
10476;BME280;26166;48.264;11.436;2023-01-27T04:53:20;96199.47;;;8.46;45.43
10476;BME280;26166;48.264;11.436;2023-01-27T04:56:21;96193.78;;;8.50;45.43
10476;BME280;26166;48.264;11.436;2023-01-27T04:59:22;96196.88;;;8.46;45.33
10476;BME280;26166;48.264;11.436;2023-01-27T05:02:22;96190.78;;;8.45;45.41
10476;BME280;26166;48.264;11.436;2023-01-27T05:05:23;96203.72;;;8.47;45.23
10476;BME280;26166;48.264;11.436;2023-01-27T05:08:24;96198.50;;;8.47;45.36
10476;BME280;26166;48.264;11.436;2023-01-27T05:11:24;96209.31;;;8.52;45.12
10476;BME280;26166;48.264;11.436;2023-01-27T05:14:24;96203.41;;;8.50;45.24
10476;BME280;26166;48.264;11.436;2023-01-27T05:17:25;96205.06;;;8.51;45.11
10476;BME280;26166;48.264;11.436;2023-01-27T05:20:26;96202.44;;;8.51;45.29
10476;BME280;26166;48.264;11.436;2023-01-27T05:23:27;96200.94;;;8.48;45.22
10476;BME280;26166;48.264;11.436;2023-01-27T05:26:36;96208.63;;;8.50;45.13
10476;BME280;26166;48.264;11.436;2023-01-27T05:29:36;96206.88;;;8.50;45.13
10476;BME280;26166;48.264;11.436;2023-01-27T05:32:36;96219.97;;;8.50;45.24
10476;BME280;26166;48.264;11.436;2023-01-27T05:35:36;96216.19;;;8.53;45.25
10476;BME280;26166;48.264;11.436;2023-01-27T05:38:37;96220.09;;;8.49;45.27
10476;BME280;26166;48.264;11.436;2023-01-27T05:41:37;96220.56;;;8.44;45.30
10476;BME280;26166;48.264;11.436;2023-01-27T05:44:37;96222.72;;;8.49;45.34
10476;BME280;26166;48.264;11.436;2023-01-27T05:47:38;96221.06;;;8.48;45.41
10476;BME280;26166;48.264;11.436;2023-01-27T05:50:38;96228.97;;;8.56;45.45
10476;BME280;26166;48.264;11.436;2023-01-27T05:53:38;96232.59;;;8.63;45.21
10476;BME280;26166;48.264;11.436;2023-01-27T05:56:38;96238.53;;;8.65;44.89
10476;BME280;26166;48.264;11.436;2023-01-27T05:59:39;96234.63;;;8.69;44.99
10476;BME280;26166;48.264;11.436;2023-01-27T06:02:39;96244.78;;;8.72;45.08
10476;BME280;26166;48.264;11.436;2023-01-27T06:05:49;96247.91;;;8.76;44.43
10476;BME280;26166;48.264;11.436;2023-01-27T06:08:50;96246.09;;;8.76;44.67
10476;BME280;26166;48.264;11.436;2023-01-27T06:11:50;96255.69;;;8.86;44.58
10476;BME280;26166;48.264;11.436;2023-01-27T06:14:50;96256.16;;;8.89;44.65
10476;BME280;26166;48.264;11.436;2023-01-27T06:17:50;96258.91;;;8.79;44.46
10476;BME280;26166;48.264;11.436;2023-01-27T06:20:50;96256.28;;;8.79;44.64
10476;BME280;26166;48.264;11.436;2023-01-27T06:23:50;96257.91;;;8.80;44.48
10476;BME280;26166;48.264;11.436;2023-01-27T06:26:52;96255.00;;;8.83;44.53
10476;BME280;26166;48.264;11.436;2023-01-27T06:29:52;96250.75;;;8.82;44.53
10476;BME280;26166;48.264;11.436;2023-01-27T06:32:52;96256.50;;;8.86;44.25
10476;BME280;26166;48.264;11.436;2023-01-27T06:35:58;96261.22;;;8.82;44.30
10476;BME280;26166;48.264;11.436;2023-01-27T06:38:59;96265.63;;;8.82;44.34
10476;BME280;26166;48.264;11.436;2023-01-27T06:41:59;96278.56;;;8.83;44.50
10476;BME280;26166;48.264;11.436;2023-01-27T06:44:59;96274.47;;;8.81;44.33
10476;BME280;26166;48.264;11.436;2023-01-27T06:48:00;96284.97;;;8.63;44.50
10476;BME280;26166;48.264;11.436;2023-01-27T06:51:00;96289.50;;;8.35;45.28
10476;BME280;26166;48.264;11.436;2023-01-27T06:54:00;96296.28;;;8.38;45.10
10476;BME280;26166;48.264;11.436;2023-01-27T06:57:00;96296.34;;;8.46;45.08
10476;BME280;26166;48.264;11.436;2023-01-27T07:00:01;96302.06;;;8.49;45.39
10476;BME280;26166;48.264;11.436;2023-01-27T07:03:02;96294.28;;;8.57;44.84
10476;BME280;26166;48.264;11.436;2023-01-27T07:06:05;96296.44;;;8.62;45.05
10476;BME280;26166;48.264;11.436;2023-01-27T07:09:05;96291.19;;;8.62;44.72
10476;BME280;26166;48.264;11.436;2023-01-27T07:12:05;96301.00;;;8.60;44.85
10476;BME280;26166;48.264;11.436;2023-01-27T07:15:09;96302.19;;;8.66;45.09
10476;BME280;26166;48.264;11.436;2023-01-27T07:18:09;96302.34;;;8.64;44.92
10476;BME280;26166;48.264;11.436;2023-01-27T07:21:10;96298.28;;;8.70;44.67
10476;BME280;26166;48.264;11.436;2023-01-27T07:24:11;96294.34;;;8.66;44.61
10476;BME280;26166;48.264;11.436;2023-01-27T07:27:11;96292.25;;;8.69;44.85
10476;BME280;26166;48.264;11.436;2023-01-27T07:30:12;96288.94;;;8.67;44.93
10476;BME280;26166;48.264;11.436;2023-01-27T07:33:12;96279.44;;;8.66;44.93
10476;BME280;26166;48.264;11.436;2023-01-27T07:36:14;96289.78;;;8.68;44.86
10476;BME280;26166;48.264;11.436;2023-01-27T07:39:14;96294.84;;;8.69;44.94
10476;BME280;26166;48.264;11.436;2023-01-27T07:42:14;96290.97;;;8.73;44.80
10476;BME280;26166;48.264;11.436;2023-01-27T07:45:14;96285.03;;;8.71;44.89
10476;BME280;26166;48.264;11.436;2023-01-27T07:48:15;96285.03;;;8.71;45.10
10476;BME280;26166;48.264;11.436;2023-01-27T07:51:15;96286.84;;;8.71;44.97
10476;BME280;26166;48.264;11.436;2023-01-27T07:54:15;96293.25;;;8.76;44.93
10476;BME280;26166;48.264;11.436;2023-01-27T07:57:16;96290.28;;;8.71;44.95
10476;BME280;26166;48.264;11.436;2023-01-27T08:00:16;96288.81;;;8.69;44.84
10476;BME280;26166;48.264;11.436;2023-01-27T08:03:21;96288.63;;;8.70;44.87
10476;BME280;26166;48.264;11.436;2023-01-27T08:06:22;96282.28;;;8.73;44.97
10476;BME280;26166;48.264;11.436;2023-01-27T08:09:22;96282.88;;;8.67;44.77
10476;BME280;26166;48.264;11.436;2023-01-27T08:12:22;96285.38;;;8.68;44.72
10476;BME280;26166;48.264;11.436;2023-01-27T08:15:22;96288.63;;;8.70;44.87
10476;BME280;26166;48.264;11.436;2023-01-27T08:18:23;96294.16;;;8.67;45.03
10476;BME280;26166;48.264;11.436;2023-01-27T08:21:24;96291.41;;;8.69;44.98
10476;BME280;26166;48.264;11.436;2023-01-27T08:24:24;96287.97;;;8.68;45.15
10476;BME280;26166;48.264;11.436;2023-01-27T08:27:24;96298.06;;;8.63;45.10
10476;BME280;26166;48.264;11.436;2023-01-27T08:30:25;96307.88;;;8.61;45.07
10476;BME280;26166;48.264;11.436;2023-01-27T08:33:25;96312.16;;;8.62;45.19
10476;BME280;26166;48.264;11.436;2023-01-27T08:36:25;96303.63;;;8.60;44.96
10476;BME280;26166;48.264;11.436;2023-01-27T08:39:26;96313.28;;;8.59;45.22
10476;BME280;26166;48.264;11.436;2023-01-27T08:42:26;96314.41;;;8.57;45.25
10476;BME280;26166;48.264;11.436;2023-01-27T08:45:26;96319.63;;;8.57;45.52
10476;BME280;26166;48.264;11.436;2023-01-27T08:48:27;96316.56;;;8.62;45.13
10476;BME280;26166;48.264;11.436;2023-01-27T08:51:28;96323.44;;;8.63;45.09
10476;BME280;26166;48.264;11.436;2023-01-27T08:54:28;96323.59;;;8.61;45.22
10476;BME280;26166;48.264;11.436;2023-01-27T08:57:28;96321.63;;;8.63;45.05
10476;BME280;26166;48.264;11.436;2023-01-27T09:00:31;96330.47;;;8.62;45.10
10476;BME280;26166;48.264;11.436;2023-01-27T09:03:32;96329.81;;;8.60;45.44
10476;BME280;26166;48.264;11.436;2023-01-27T09:06:32;96336.41;;;8.64;45.18
10476;BME280;26166;48.264;11.436;2023-01-27T09:09:32;96337.22;;;8.65;45.33
10476;BME280;26166;48.264;11.436;2023-01-27T09:12:32;96339.97;;;8.63;45.27
10476;BME280;26166;48.264;11.436;2023-01-27T09:15:33;96342.59;;;8.63;45.25
10476;BME280;26166;48.264;11.436;2023-01-27T09:18:34;96341.03;;;8.52;45.37
10476;BME280;26166;48.264;11.436;2023-01-27T09:21:34;96343.28;;;8.47;45.75
10476;BME280;26166;48.264;11.436;2023-01-27T09:24:34;96346.22;;;8.44;45.83
10476;BME280;26166;48.264;11.436;2023-01-27T09:27:35;96348.81;;;8.44;45.72
10476;BME280;26166;48.264;11.436;2023-01-27T09:30:35;96352.94;;;8.47;45.70
10476;BME280;26166;48.264;11.436;2023-01-27T09:33:35;96350.34;;;8.47;45.54
10476;BME280;26166;48.264;11.436;2023-01-27T09:36:41;96352.78;;;8.48;45.63
10476;BME280;26166;48.264;11.436;2023-01-27T09:39:45;96362.00;;;8.52;45.56
10476;BME280;26166;48.264;11.436;2023-01-27T10:20:47;96349.66;;;8.45;45.88
10476;BME280;26166;48.264;11.436;2023-01-27T10:23:57;96352.19;;;8.37;45.71
10476;BME280;26166;48.264;11.436;2023-01-27T10:30:13;96352.47;;;8.33;45.93
10476;BME280;26166;48.264;11.436;2023-01-27T10:33:21;96353.47;;;8.32;45.84
10476;BME280;26166;48.264;11.436;2023-01-27T10:36:29;96364.44;;;8.36;45.88
10476;BME280;26166;48.264;11.436;2023-01-27T10:39:46;96365.84;;;8.30;46.17
10476;BME280;26166;48.264;11.436;2023-01-27T10:46:04;96371.47;;;8.35;45.93
10476;BME280;26166;48.264;11.436;2023-01-27T10:52:15;96366.63;;;8.41;45.79
10476;BME280;26166;48.264;11.436;2023-01-27T10:55:19;96367.97;;;8.45;45.65
10476;BME280;26166;48.264;11.436;2023-01-27T10:58:28;96363.88;;;8.42;45.55
10476;BME280;26166;48.264;11.436;2023-01-27T11:01:35;96359.47;;;8.43;45.86
10476;BME280;26166;48.264;11.436;2023-01-27T11:04:39;96365.50;;;8.43;45.71
10476;BME280;26166;48.264;11.436;2023-01-27T11:07:45;96372.53;;;8.43;45.70
10476;BME280;26166;48.264;11.436;2023-01-27T11:10:50;96366.34;;;8.44;45.80
10476;BME280;26166;48.264;11.436;2023-01-27T11:14:13;96360.03;;;8.37;47.68
10476;BME280;26166;48.264;11.436;2023-01-27T11:17:31;96356.00;;;8.24;48.19
10476;BME280;26166;48.264;11.436;2023-01-27T11:20:41;96346.72;;;8.30;48.01
10476;BME280;26166;48.264;11.436;2023-01-27T11:23:43;96356.72;;;8.34;48.24
10476;BME280;26166;48.264;11.436;2023-01-27T11:26:50;96355.34;;;8.40;48.11
10476;BME280;26166;48.264;11.436;2023-01-27T11:29:58;96350.63;;;8.44;47.82
10476;BME280;26166;48.264;11.436;2023-01-27T11:33:08;96350.84;;;8.50;47.53
10476;BME280;26166;48.264;11.436;2023-01-27T11:36:10;96353.97;;;8.54;47.81
10476;BME280;26166;48.264;11.436;2023-01-27T11:39:10;96359.38;;;8.52;48.00
10476;BME280;26166;48.264;11.436;2023-01-27T11:42:11;96356.59;;;8.54;48.10
10476;BME280;26166;48.264;11.436;2023-01-27T11:45:12;96358.84;;;8.49;48.11
10476;BME280;26166;48.264;11.436;2023-01-27T11:48:14;96357.72;;;8.51;47.90
10476;BME280;26166;48.264;11.436;2023-01-27T11:51:17;96355.78;;;8.53;48.05
10476;BME280;26166;48.264;11.436;2023-01-27T11:54:21;96342.69;;;8.53;47.50
10476;BME280;26166;48.264;11.436;2023-01-27T11:57:23;96343.66;;;8.52;47.64
10476;BME280;26166;48.264;11.436;2023-01-27T12:00:25;96343.13;;;8.49;47.73
10476;BME280;26166;48.264;11.436;2023-01-27T12:06:58;96333.00;;;8.46;47.87
10476;BME280;26166;48.264;11.436;2023-01-27T12:10:00;96331.03;;;8.48;47.88
10476;BME280;26166;48.264;11.436;2023-01-27T12:13:06;96333.19;;;8.52;47.55
10476;BME280;26166;48.264;11.436;2023-01-27T12:16:08;96335.16;;;8.50;47.95
10476;BME280;26166;48.264;11.436;2023-01-27T12:19:24;96332.00;;;8.47;47.97
10476;BME280;26166;48.264;11.436;2023-01-27T12:22:28;96330.66;;;8.43;48.20
10476;BME280;26166;48.264;11.436;2023-01-27T12:25:31;96323.16;;;8.48;47.69
10476;BME280;26166;48.264;11.436;2023-01-27T12:28:49;96325.59;;;8.41;47.75
10476;BME280;26166;48.264;11.436;2023-01-27T12:31:52;96317.69;;;8.23;48.24
10476;BME280;26166;48.264;11.436;2023-01-27T12:34:53;96324.78;;;8.31;48.23
10476;BME280;26166;48.264;11.436;2023-01-27T12:38:00;96322.13;;;8.41;47.76
10476;BME280;26166;48.264;11.436;2023-01-27T12:41:01;96317.56;;;8.43;47.63
10476;BME280;26166;48.264;11.436;2023-01-27T12:44:16;96316.97;;;8.49;47.44
10476;BME280;26166;48.264;11.436;2023-01-27T12:47:27;96321.91;;;8.52;47.48
10476;BME280;26166;48.264;11.436;2023-01-27T12:50:31;96326.03;;;8.54;47.49
10476;BME280;26166;48.264;11.436;2023-01-27T12:53:32;96322.19;;;8.49;47.32
10476;BME280;26166;48.264;11.436;2023-01-27T12:56:32;96330.72;;;8.51;47.06
10476;BME280;26166;48.264;11.436;2023-01-27T12:59:33;96320.25;;;8.51;46.99
10476;BME280;26166;48.264;11.436;2023-01-27T13:02:34;96323.25;;;8.56;47.27
10476;BME280;26166;48.264;11.436;2023-01-27T13:05:37;96317.84;;;8.57;47.08
10476;BME280;26166;48.264;11.436;2023-01-27T13:08:38;96317.03;;;8.57;47.23
10476;BME280;26166;48.264;11.436;2023-01-27T13:11:40;96309.16;;;8.57;47.15
10476;BME280;26166;48.264;11.436;2023-01-27T13:14:40;96307.81;;;8.53;47.07
10476;BME280;26166;48.264;11.436;2023-01-27T13:17:48;96311.25;;;8.53;47.32
10476;BME280;26166;48.264;11.436;2023-01-27T13:20:50;96315.56;;;8.54;46.75
10476;BME280;26166;48.264;11.436;2023-01-27T13:23:52;96315.16;;;8.31;47.24
10476;BME280;26166;48.264;11.436;2023-01-27T13:26:54;96309.41;;;8.28;47.45
10476;BME280;26166;48.264;11.436;2023-01-27T13:29:58;96313.34;;;8.32;47.57
10476;BME280;26166;48.264;11.436;2023-01-27T13:33:02;96318.16;;;8.37;47.24
10476;BME280;26166;48.264;11.436;2023-01-27T13:36:24;96312.63;;;8.40;46.90
10476;BME280;26166;48.264;11.436;2023-01-27T13:39:46;96313.69;;;8.47;47.27
10476;BME280;26166;48.264;11.436;2023-01-27T13:49:14;96317.28;;;8.46;47.29
10476;BME280;26166;48.264;11.436;2023-01-27T13:52:16;96312.88;;;8.46;46.91
10476;BME280;26166;48.264;11.436;2023-01-27T13:55:17;96317.13;;;8.47;47.19
10476;BME280;26166;48.264;11.436;2023-01-27T14:20:31;96330.13;;;8.57;47.15
10476;BME280;26166;48.264;11.436;2023-01-27T14:23:39;96328.31;;;8.57;47.34
10476;BME280;26166;48.264;11.436;2023-01-27T14:30:46;96333.25;;;8.61;47.46
10476;BME280;26166;48.264;11.436;2023-01-27T14:36:40;96330.84;;;8.67;47.43
10476;BME280;26166;48.264;11.436;2023-01-27T14:45:54;96339.06;;;8.72;46.75
10476;BME280;26166;48.264;11.436;2023-01-27T14:49:14;96346.59;;;8.75;46.88
10476;BME280;26166;48.264;11.436;2023-01-27T14:55:42;96340.78;;;8.81;46.91
10476;BME280;26166;48.264;11.436;2023-01-27T14:58:58;96349.97;;;8.86;46.43
10476;BME280;26166;48.264;11.436;2023-01-27T15:08:17;96364.34;;;8.81;46.63
10476;BME280;26166;48.264;11.436;2023-01-27T15:11:33;96363.66;;;8.79;46.46
10476;BME280;26166;48.264;11.436;2023-01-27T15:18:10;96368.91;;;8.79;46.43
10476;BME280;26166;48.264;11.436;2023-01-27T15:27:24;96378.19;;;8.74;46.84
10476;BME280;26166;48.264;11.436;2023-01-27T15:30:32;96380.66;;;8.75;46.76
10476;BME280;26166;48.264;11.436;2023-01-27T15:40:20;96389.50;;;8.74;46.84
10476;BME280;26166;48.264;11.436;2023-01-27T15:43:22;96387.41;;;8.78;47.09
10476;BME280;26166;48.264;11.436;2023-01-27T15:46:27;96392.78;;;8.76;47.27
10476;BME280;26166;48.264;11.436;2023-01-27T15:49:36;96396.00;;;8.70;47.06
10476;BME280;26166;48.264;11.436;2023-01-27T15:52:43;96385.59;;;8.78;46.94
10476;BME280;26166;48.264;11.436;2023-01-27T15:55:51;96382.28;;;8.76;47.06
10476;BME280;26166;48.264;11.436;2023-01-27T15:58:55;96389.34;;;8.76;46.98
10476;BME280;26166;48.264;11.436;2023-01-27T16:05:24;96395.56;;;8.75;47.21
10476;BME280;26166;48.264;11.436;2023-01-27T16:08:28;96387.03;;;8.73;47.25
10476;BME280;26166;48.264;11.436;2023-01-27T16:14:37;96397.50;;;8.73;47.23
10476;BME280;26166;48.264;11.436;2023-01-27T16:27:45;96406.84;;;8.75;47.52
10476;BME280;26166;48.264;11.436;2023-01-27T16:33:59;96404.16;;;8.67;47.57
10476;BME280;26166;48.264;11.436;2023-01-27T16:37:07;96407.16;;;8.72;47.81
10476;BME280;26166;48.264;11.436;2023-01-27T16:40:14;96402.06;;;8.71;48.13
10476;BME280;26166;48.264;11.436;2023-01-27T16:43:16;96408.00;;;8.73;48.34
10476;BME280;26166;48.264;11.436;2023-01-27T16:49:39;96409.53;;;8.83;48.41
10476;BME280;26166;48.264;11.436;2023-01-27T16:52:42;96407.16;;;8.90;48.14
10476;BME280;26166;48.264;11.436;2023-01-27T16:55:53;96412.06;;;8.93;47.87
10476;BME280;26166;48.264;11.436;2023-01-27T16:58:58;96411.59;;;8.98;47.92
10476;BME280;26166;48.264;11.436;2023-01-27T17:02:00;96407.03;;;9.00;47.88
10476;BME280;26166;48.264;11.436;2023-01-27T17:05:03;96408.69;;;9.01;47.98
10476;BME280;26166;48.264;11.436;2023-01-27T17:14:17;96414.91;;;9.00;48.13
10476;BME280;26166;48.264;11.436;2023-01-27T17:17:18;96419.81;;;9.03;47.87
10476;BME280;26166;48.264;11.436;2023-01-27T17:20:22;96413.63;;;9.04;47.70
10476;BME280;26166;48.264;11.436;2023-01-27T17:23:32;96423.13;;;9.05;47.79
10476;BME280;26166;48.264;11.436;2023-01-27T17:26:34;96426.72;;;9.04;47.86
10476;BME280;26166;48.264;11.436;2023-01-27T17:29:39;96431.00;;;9.05;47.82
10476;BME280;26166;48.264;11.436;2023-01-27T17:32:41;96429.34;;;9.04;47.84
10476;BME280;26166;48.264;11.436;2023-01-27T17:35:52;96437.34;;;9.02;47.75
10476;BME280;26166;48.264;11.436;2023-01-27T17:38:53;96435.53;;;9.03;47.71
10476;BME280;26166;48.264;11.436;2023-01-27T17:41:54;96447.97;;;9.01;47.61
10476;BME280;26166;48.264;11.436;2023-01-27T17:44:54;96444.84;;;8.97;47.78
10476;BME280;26166;48.264;11.436;2023-01-27T17:48:14;96443.66;;;8.92;47.81
10476;BME280;26166;48.264;11.436;2023-01-27T17:51:17;96442.03;;;8.91;47.81
10476;BME280;26166;48.264;11.436;2023-01-27T17:57:29;96453.16;;;8.93;47.76
10476;BME280;26166;48.264;11.436;2023-01-27T18:00:38;96448.06;;;8.91;47.64
10476;BME280;26166;48.264;11.436;2023-01-27T18:03:39;96450.53;;;8.93;47.64
10476;BME280;26166;48.264;11.436;2023-01-27T18:06:40;96458.25;;;8.94;47.75
10476;BME280;26166;48.264;11.436;2023-01-27T18:09:46;96456.59;;;8.93;47.78
10476;BME280;26166;48.264;11.436;2023-01-27T18:12:50;96462.97;;;8.91;47.78
10476;BME280;26166;48.264;11.436;2023-01-27T18:16:00;96468.88;;;8.93;47.51
10476;BME280;26166;48.264;11.436;2023-01-27T18:19:16;96466.72;;;8.88;47.58
10476;BME280;26166;48.264;11.436;2023-01-27T18:22:17;96469.50;;;8.87;47.54
10476;BME280;26166;48.264;11.436;2023-01-27T18:25:18;96476.66;;;8.84;47.48
10476;BME280;26166;48.264;11.436;2023-01-27T18:28:18;96481.06;;;8.84;47.54
10476;BME280;26166;48.264;11.436;2023-01-27T18:31:23;96483.56;;;8.86;47.53
10476;BME280;26166;48.264;11.436;2023-01-27T18:34:28;96480.63;;;8.89;47.64
10476;BME280;26166;48.264;11.436;2023-01-27T18:37:33;96484.06;;;8.89;47.18
10476;BME280;26166;48.264;11.436;2023-01-27T18:40:35;96479.81;;;8.88;47.39
10476;BME280;26166;48.264;11.436;2023-01-27T18:43:36;96480.94;;;8.86;47.31
10476;BME280;26166;48.264;11.436;2023-01-27T18:46:36;96485.22;;;8.87;47.29
10476;BME280;26166;48.264;11.436;2023-01-27T18:49:36;96482.59;;;8.87;47.42